sensor_id;sensor_type;location;lat;lon;timestamp;P1;durP1;ratioP1;P2;durP2;ratioP2
29712;SDS011;16623;53.632;10.016;2023-05-23T00:02:20;16.35;;;12.73;;
29712;SDS011;16623;53.632;10.016;2023-05-23T00:04:46;18.65;;;13.18;;
29712;SDS011;16623;53.632;10.016;2023-05-23T00:07:12;19.08;;;12.98;;
29712;SDS011;16623;53.632;10.016;2023-05-23T00:09:37;18.58;;;13.18;;
29712;SDS011;16623;53.632;10.016;2023-05-23T00:12:03;16.58;;;13.52;;
29712;SDS011;16623;53.632;10.016;2023-05-23T00:14:29;19.50;;;13.88;;
29712;SDS011;16623;53.632;10.016;2023-05-23T00:16:59;27.77;;;15.20;;
29712;SDS011;16623;53.632;10.016;2023-05-23T00:19:25;17.60;;;14.50;;
29712;SDS011;16623;53.632;10.016;2023-05-23T00:21:50;20.58;;;15.07;;
29712;SDS011;16623;53.632;10.016;2023-05-23T00:24:20;18.77;;;14.30;;
29712;SDS011;16623;53.632;10.016;2023-05-23T00:26:45;15.18;;;13.55;;
29712;SDS011;16623;53.632;10.016;2023-05-23T00:29:11;17.23;;;14.68;;
29712;SDS011;16623;53.632;10.016;2023-05-23T00:31:41;20.20;;;15.40;;
29712;SDS011;16623;53.632;10.016;2023-05-23T00:34:10;21.02;;;15.82;;
29712;SDS011;16623;53.632;10.016;2023-05-23T00:36:39;19.55;;;17.08;;
29712;SDS011;16623;53.632;10.016;2023-05-23T00:39:07;21.83;;;15.88;;
29712;SDS011;16623;53.632;10.016;2023-05-23T00:41:33;19.88;;;17.02;;
29712;SDS011;16623;53.632;10.016;2023-05-23T00:44:00;21.20;;;17.40;;
29712;SDS011;16623;53.632;10.016;2023-05-23T00:46:26;20.58;;;17.58;;
29712;SDS011;16623;53.632;10.016;2023-05-23T00:48:52;24.63;;;17.05;;
29712;SDS011;16623;53.632;10.016;2023-05-23T00:51:19;20.88;;;16.98;;
29712;SDS011;16623;53.632;10.016;2023-05-23T00:53:45;22.33;;;17.92;;
29712;SDS011;16623;53.632;10.016;2023-05-23T00:56:11;25.98;;;20.25;;
29712;SDS011;16623;53.632;10.016;2023-05-23T00:58:38;26.75;;;23.13;;
29712;SDS011;16623;53.632;10.016;2023-05-23T01:01:05;28.35;;;23.35;;
29712;SDS011;16623;53.632;10.016;2023-05-23T01:03:32;40.08;;;28.40;;
29712;SDS011;16623;53.632;10.016;2023-05-23T01:05:57;31.38;;;27.15;;
29712;SDS011;16623;53.632;10.016;2023-05-23T01:08:23;31.60;;;28.10;;
29712;SDS011;16623;53.632;10.016;2023-05-23T01:10:49;40.30;;;27.70;;
29712;SDS011;16623;53.632;10.016;2023-05-23T01:13:39;30.23;;;26.25;;
29712;SDS011;16623;53.632;10.016;2023-05-23T01:16:12;32.35;;;23.83;;
29712;SDS011;16623;53.632;10.016;2023-05-23T01:18:45;35.08;;;27.52;;
29712;SDS011;16623;53.632;10.016;2023-05-23T01:21:22;35.42;;;26.08;;
29712;SDS011;16623;53.632;10.016;2023-05-23T01:29:47;30.52;;;26.20;;
29712;SDS011;16623;53.632;10.016;2023-05-23T01:32:18;32.53;;;25.63;;
29712;SDS011;16623;53.632;10.016;2023-05-23T01:34:46;31.92;;;25.98;;
29712;SDS011;16623;53.632;10.016;2023-05-23T01:37:13;31.48;;;25.30;;
29712;SDS011;16623;53.632;10.016;2023-05-23T01:39:42;32.92;;;26.52;;
29712;SDS011;16623;53.632;10.016;2023-05-23T01:42:08;36.70;;;28.40;;
29712;SDS011;16623;53.632;10.016;2023-05-23T01:44:33;33.97;;;24.63;;
29712;SDS011;16623;53.632;10.016;2023-05-23T01:47:01;30.27;;;26.00;;
29712;SDS011;16623;53.632;10.016;2023-05-23T01:49:27;31.10;;;24.92;;
29712;SDS011;16623;53.632;10.016;2023-05-23T01:51:55;36.13;;;26.45;;
29712;SDS011;16623;53.632;10.016;2023-05-23T01:54:20;37.45;;;26.48;;
29712;SDS011;16623;53.632;10.016;2023-05-23T01:56:47;39.40;;;27.20;;
29712;SDS011;16623;53.632;10.016;2023-05-23T01:59:13;29.40;;;25.55;;
29712;SDS011;16623;53.632;10.016;2023-05-23T02:01:38;35.00;;;26.85;;
29712;SDS011;16623;53.632;10.016;2023-05-23T02:04:05;33.40;;;26.35;;
29712;SDS011;16623;53.632;10.016;2023-05-23T02:06:31;38.15;;;27.45;;
29712;SDS011;16623;53.632;10.016;2023-05-23T02:08:56;35.55;;;26.80;;
29712;SDS011;16623;53.632;10.016;2023-05-23T02:11:22;37.55;;;27.02;;
29712;SDS011;16623;53.632;10.016;2023-05-23T02:13:47;31.77;;;27.55;;
29712;SDS011;16623;53.632;10.016;2023-05-23T02:16:13;40.13;;;29.27;;
29712;SDS011;16623;53.632;10.016;2023-05-23T02:18:39;37.55;;;30.67;;
29712;SDS011;16623;53.632;10.016;2023-05-23T02:21:05;34.35;;;30.60;;
29712;SDS011;16623;53.632;10.016;2023-05-23T02:23:30;38.05;;;33.97;;
29712;SDS011;16623;53.632;10.016;2023-05-23T02:25:56;42.83;;;37.25;;
29712;SDS011;16623;53.632;10.016;2023-05-23T02:28:21;44.05;;;36.58;;
29712;SDS011;16623;53.632;10.016;2023-05-23T02:30:47;43.67;;;38.83;;
29712;SDS011;16623;53.632;10.016;2023-05-23T02:33:12;49.70;;;41.45;;
29712;SDS011;16623;53.632;10.016;2023-05-23T02:35:38;48.80;;;42.22;;
29712;SDS011;16623;53.632;10.016;2023-05-23T02:38:04;50.63;;;41.25;;
29712;SDS011;16623;53.632;10.016;2023-05-23T02:40:30;52.15;;;43.35;;
29712;SDS011;16623;53.632;10.016;2023-05-23T02:42:55;50.92;;;43.38;;
29712;SDS011;16623;53.632;10.016;2023-05-23T02:45:21;50.33;;;41.83;;
29712;SDS011;16623;53.632;10.016;2023-05-23T02:47:47;52.47;;;43.85;;
29712;SDS011;16623;53.632;10.016;2023-05-23T02:50:13;68.60;;;44.17;;
29712;SDS011;16623;53.632;10.016;2023-05-23T02:52:39;65.68;;;46.10;;
29712;SDS011;16623;53.632;10.016;2023-05-23T02:55:06;63.85;;;44.47;;
29712;SDS011;16623;53.632;10.016;2023-05-23T02:57:32;62.90;;;43.83;;
29712;SDS011;16623;53.632;10.016;2023-05-23T02:59:58;72.78;;;47.55;;
29712;SDS011;16623;53.632;10.016;2023-05-23T03:02:23;63.58;;;46.08;;
29712;SDS011;16623;53.632;10.016;2023-05-23T03:04:50;68.72;;;47.95;;
29712;SDS011;16623;53.632;10.016;2023-05-23T03:07:15;70.78;;;46.33;;
29712;SDS011;16623;53.632;10.016;2023-05-23T03:09:41;64.15;;;44.97;;
29712;SDS011;16623;53.632;10.016;2023-05-23T03:12:06;68.95;;;44.80;;
29712;SDS011;16623;53.632;10.016;2023-05-23T03:14:32;69.70;;;43.08;;
29712;SDS011;16623;53.632;10.016;2023-05-23T03:16:57;65.32;;;42.63;;
29712;SDS011;16623;53.632;10.016;2023-05-23T03:19:23;67.00;;;40.95;;
29712;SDS011;16623;53.632;10.016;2023-05-23T03:21:48;66.35;;;39.15;;
29712;SDS011;16623;53.632;10.016;2023-05-23T03:24:16;59.97;;;40.20;;
29712;SDS011;16623;53.632;10.016;2023-05-23T03:26:41;59.30;;;38.15;;
29712;SDS011;16623;53.632;10.016;2023-05-23T03:29:07;61.28;;;38.13;;
29712;SDS011;16623;53.632;10.016;2023-05-23T03:31:34;63.63;;;38.25;;
29712;SDS011;16623;53.632;10.016;2023-05-23T03:34:00;60.20;;;38.30;;
29712;SDS011;16623;53.632;10.016;2023-05-23T03:36:26;62.50;;;39.13;;
29712;SDS011;16623;53.632;10.016;2023-05-23T03:38:52;64.55;;;38.65;;
29712;SDS011;16623;53.632;10.016;2023-05-23T03:41:18;59.92;;;38.40;;
29712;SDS011;16623;53.632;10.016;2023-05-23T03:43:43;73.45;;;37.50;;
29712;SDS011;16623;53.632;10.016;2023-05-23T03:46:09;73.85;;;39.75;;
29712;SDS011;16623;53.632;10.016;2023-05-23T03:48:35;53.42;;;37.45;;
29712;SDS011;16623;53.632;10.016;2023-05-23T03:51:01;65.20;;;36.45;;
29712;SDS011;16623;53.632;10.016;2023-05-23T03:53:27;59.90;;;35.65;;
29712;SDS011;16623;53.632;10.016;2023-05-23T03:55:52;70.68;;;39.65;;
29712;SDS011;16623;53.632;10.016;2023-05-23T03:58:18;52.28;;;35.00;;
29712;SDS011;16623;53.632;10.016;2023-05-23T04:00:44;57.70;;;34.67;;
29712;SDS011;16623;53.632;10.016;2023-05-23T04:03:10;56.20;;;36.28;;
29712;SDS011;16623;53.632;10.016;2023-05-23T04:05:39;57.25;;;35.17;;
29712;SDS011;16623;53.632;10.016;2023-05-23T04:08:04;66.50;;;33.30;;
29712;SDS011;16623;53.632;10.016;2023-05-23T04:10:30;54.42;;;34.28;;
29712;SDS011;16623;53.632;10.016;2023-05-23T04:12:56;60.67;;;36.00;;
29712;SDS011;16623;53.632;10.016;2023-05-23T04:15:22;55.03;;;33.80;;
29712;SDS011;16623;53.632;10.016;2023-05-23T04:17:48;57.45;;;33.70;;
29712;SDS011;16623;53.632;10.016;2023-05-23T04:20:15;59.83;;;34.95;;
29712;SDS011;16623;53.632;10.016;2023-05-23T04:22:41;58.53;;;35.22;;
29712;SDS011;16623;53.632;10.016;2023-05-23T04:25:07;51.25;;;33.70;;
29712;SDS011;16623;53.632;10.016;2023-05-23T04:27:33;59.03;;;35.47;;
29712;SDS011;16623;53.632;10.016;2023-05-23T04:29:59;59.95;;;35.38;;
29712;SDS011;16623;53.632;10.016;2023-05-23T04:32:25;66.13;;;34.50;;
29712;SDS011;16623;53.632;10.016;2023-05-23T04:34:51;62.00;;;34.95;;
29712;SDS011;16623;53.632;10.016;2023-05-23T04:37:17;67.43;;;35.50;;
29712;SDS011;16623;53.632;10.016;2023-05-23T04:39:46;58.92;;;36.95;;
29712;SDS011;16623;53.632;10.016;2023-05-23T04:42:12;57.78;;;36.58;;
29712;SDS011;16623;53.632;10.016;2023-05-23T04:44:37;65.75;;;37.00;;
29712;SDS011;16623;53.632;10.016;2023-05-23T04:47:03;64.85;;;37.13;;
29712;SDS011;16623;53.632;10.016;2023-05-23T04:49:29;64.82;;;37.00;;
29712;SDS011;16623;53.632;10.016;2023-05-23T04:51:58;64.18;;;36.90;;
29712;SDS011;16623;53.632;10.016;2023-05-23T04:54:23;75.32;;;39.35;;
29712;SDS011;16623;53.632;10.016;2023-05-23T04:56:49;66.88;;;38.97;;
29712;SDS011;16623;53.632;10.016;2023-05-23T04:59:15;70.88;;;38.53;;
29712;SDS011;16623;53.632;10.016;2023-05-23T05:01:41;73.13;;;39.60;;
29712;SDS011;16623;53.632;10.016;2023-05-23T05:04:06;66.15;;;40.95;;
29712;SDS011;16623;53.632;10.016;2023-05-23T05:06:32;81.53;;;40.38;;
29712;SDS011;16623;53.632;10.016;2023-05-23T05:08:58;67.00;;;39.53;;
29712;SDS011;16623;53.632;10.016;2023-05-23T05:11:25;69.97;;;38.78;;
29712;SDS011;16623;53.632;10.016;2023-05-23T05:13:51;65.77;;;39.00;;
29712;SDS011;16623;53.632;10.016;2023-05-23T05:16:16;71.65;;;39.63;;
29712;SDS011;16623;53.632;10.016;2023-05-23T05:18:42;68.22;;;39.22;;
29712;SDS011;16623;53.632;10.016;2023-05-23T05:21:07;73.85;;;40.13;;
29712;SDS011;16623;53.632;10.016;2023-05-23T05:23:34;80.15;;;40.85;;
29712;SDS011;16623;53.632;10.016;2023-05-23T05:26:00;72.95;;;38.88;;
29712;SDS011;16623;53.632;10.016;2023-05-23T05:28:26;75.40;;;39.58;;
29712;SDS011;16623;53.632;10.016;2023-05-23T05:30:51;65.97;;;38.28;;
29712;SDS011;16623;53.632;10.016;2023-05-23T05:33:20;69.63;;;40.33;;
29712;SDS011;16623;53.632;10.016;2023-05-23T05:35:48;75.13;;;43.50;;
29712;SDS011;16623;53.632;10.016;2023-05-23T05:38:17;76.57;;;42.13;;
29712;SDS011;16623;53.632;10.016;2023-05-23T05:40:43;94.57;;;44.90;;
29712;SDS011;16623;53.632;10.016;2023-05-23T05:43:09;92.18;;;43.85;;
29712;SDS011;16623;53.632;10.016;2023-05-23T05:45:35;81.47;;;42.53;;
29712;SDS011;16623;53.632;10.016;2023-05-23T05:48:00;93.57;;;46.08;;
29712;SDS011;16623;53.632;10.016;2023-05-23T05:50:26;91.93;;;46.67;;
29712;SDS011;16623;53.632;10.016;2023-05-23T05:52:52;82.18;;;45.92;;
29712;SDS011;16623;53.632;10.016;2023-05-23T05:55:17;92.22;;;49.20;;
29712;SDS011;16623;53.632;10.016;2023-05-23T05:57:43;90.57;;;47.53;;
29712;SDS011;16623;53.632;10.016;2023-05-23T06:00:09;82.72;;;46.33;;
29712;SDS011;16623;53.632;10.016;2023-05-23T06:02:39;101.85;;;48.45;;
29712;SDS011;16623;53.632;10.016;2023-05-23T06:05:07;106.13;;;47.90;;
29712;SDS011;16623;53.632;10.016;2023-05-23T06:07:36;89.88;;;47.85;;
29712;SDS011;16623;53.632;10.016;2023-05-23T06:10:05;89.07;;;46.58;;
29712;SDS011;16623;53.632;10.016;2023-05-23T06:12:31;81.88;;;44.35;;
29712;SDS011;16623;53.632;10.016;2023-05-23T06:14:57;81.65;;;44.97;;
29712;SDS011;16623;53.632;10.016;2023-05-23T06:17:23;94.70;;;46.30;;
29712;SDS011;16623;53.632;10.016;2023-05-23T06:19:49;87.53;;;45.28;;
29712;SDS011;16623;53.632;10.016;2023-05-23T06:22:14;86.38;;;45.20;;
29712;SDS011;16623;53.632;10.016;2023-05-23T06:24:40;79.05;;;43.55;;
29712;SDS011;16623;53.632;10.016;2023-05-23T06:27:05;89.88;;;44.67;;
29712;SDS011;16623;53.632;10.016;2023-05-23T06:29:31;90.82;;;46.13;;
29712;SDS011;16623;53.632;10.016;2023-05-23T06:31:56;93.32;;;45.30;;
29712;SDS011;16623;53.632;10.016;2023-05-23T06:34:22;90.50;;;45.53;;
29712;SDS011;16623;53.632;10.016;2023-05-23T06:36:47;98.22;;;47.83;;
29712;SDS011;16623;53.632;10.016;2023-05-23T06:39:13;102.82;;;48.55;;
29712;SDS011;16623;53.632;10.016;2023-05-23T06:41:39;93.55;;;47.90;;
29712;SDS011;16623;53.632;10.016;2023-05-23T06:44:05;92.78;;;48.35;;
29712;SDS011;16623;53.632;10.016;2023-05-23T06:46:30;97.15;;;48.13;;
29712;SDS011;16623;53.632;10.016;2023-05-23T06:48:56;83.70;;;42.53;;
29712;SDS011;16623;53.632;10.016;2023-05-23T06:51:22;73.90;;;40.58;;
29712;SDS011;16623;53.632;10.016;2023-05-23T06:53:48;68.10;;;37.65;;
29712;SDS011;16623;53.632;10.016;2023-05-23T06:56:13;66.90;;;38.60;;
29712;SDS011;16623;53.632;10.016;2023-05-23T06:58:39;55.05;;;34.10;;
29712;SDS011;16623;53.632;10.016;2023-05-23T07:01:05;47.15;;;30.85;;
29712;SDS011;16623;53.632;10.016;2023-05-23T07:03:30;46.78;;;28.20;;
29712;SDS011;16623;53.632;10.016;2023-05-23T07:05:56;46.78;;;30.20;;
29712;SDS011;16623;53.632;10.016;2023-05-23T07:08:22;30.05;;;20.65;;
29712;SDS011;16623;53.632;10.016;2023-05-23T07:10:47;31.83;;;20.67;;
29712;SDS011;16623;53.632;10.016;2023-05-23T07:13:13;28.02;;;17.48;;
29712;SDS011;16623;53.632;10.016;2023-05-23T07:15:38;18.02;;;14.45;;
29712;SDS011;16623;53.632;10.016;2023-05-23T07:18:04;25.08;;;14.85;;
29712;SDS011;16623;53.632;10.016;2023-05-23T07:20:31;22.33;;;15.35;;
29712;SDS011;16623;53.632;10.016;2023-05-23T07:22:58;23.35;;;13.73;;
29712;SDS011;16623;53.632;10.016;2023-05-23T07:25:24;25.00;;;14.50;;
29712;SDS011;16623;53.632;10.016;2023-05-23T07:27:50;24.05;;;13.48;;
29712;SDS011;16623;53.632;10.016;2023-05-23T07:30:18;19.77;;;12.95;;
29712;SDS011;16623;53.632;10.016;2023-05-23T07:32:45;18.08;;;13.18;;
29712;SDS011;16623;53.632;10.016;2023-05-23T07:35:11;24.45;;;13.73;;
29712;SDS011;16623;53.632;10.016;2023-05-23T07:37:37;18.55;;;12.80;;
29712;SDS011;16623;53.632;10.016;2023-05-23T07:40:03;18.35;;;12.65;;
29712;SDS011;16623;53.632;10.016;2023-05-23T07:42:29;16.67;;;11.43;;
29712;SDS011;16623;53.632;10.016;2023-05-23T07:44:55;19.77;;;11.98;;
29712;SDS011;16623;53.632;10.016;2023-05-23T07:47:20;20.95;;;10.85;;
29712;SDS011;16623;53.632;10.016;2023-05-23T07:49:48;16.80;;;10.23;;
29712;SDS011;16623;53.632;10.016;2023-05-23T07:52:16;15.98;;;10.75;;
29712;SDS011;16623;53.632;10.016;2023-05-23T07:54:41;14.25;;;9.52;;
29712;SDS011;16623;53.632;10.016;2023-05-23T07:57:07;18.33;;;9.75;;
29712;SDS011;16623;53.632;10.016;2023-05-23T07:59:33;17.13;;;9.35;;
29712;SDS011;16623;53.632;10.016;2023-05-23T08:02:00;13.27;;;8.55;;
29712;SDS011;16623;53.632;10.016;2023-05-23T08:04:26;12.48;;;8.88;;
29712;SDS011;16623;53.632;10.016;2023-05-23T08:06:52;12.95;;;9.25;;
29712;SDS011;16623;53.632;10.016;2023-05-23T08:09:17;15.32;;;9.30;;
29712;SDS011;16623;53.632;10.016;2023-05-23T08:11:43;16.35;;;9.50;;
29712;SDS011;16623;53.632;10.016;2023-05-23T08:14:09;9.32;;;8.25;;
29712;SDS011;16623;53.632;10.016;2023-05-23T08:16:34;10.02;;;7.65;;
29712;SDS011;16623;53.632;10.016;2023-05-23T08:19:01;11.27;;;8.18;;
29712;SDS011;16623;53.632;10.016;2023-05-23T08:21:27;10.77;;;7.80;;
29712;SDS011;16623;53.632;10.016;2023-05-23T08:23:52;12.77;;;7.65;;
29712;SDS011;16623;53.632;10.016;2023-05-23T08:26:18;12.90;;;8.27;;
29712;SDS011;16623;53.632;10.016;2023-05-23T08:28:44;8.75;;;6.93;;
29712;SDS011;16623;53.632;10.016;2023-05-23T08:31:10;10.57;;;5.63;;
29712;SDS011;16623;53.632;10.016;2023-05-23T08:33:36;7.47;;;5.70;;
29712;SDS011;16623;53.632;10.016;2023-05-23T08:36:02;7.88;;;5.75;;
29712;SDS011;16623;53.632;10.016;2023-05-23T08:38:27;6.55;;;5.13;;
29712;SDS011;16623;53.632;10.016;2023-05-23T08:40:53;6.57;;;4.95;;
29712;SDS011;16623;53.632;10.016;2023-05-23T08:43:20;8.18;;;5.45;;
29712;SDS011;16623;53.632;10.016;2023-05-23T08:45:46;11.15;;;6.03;;
29712;SDS011;16623;53.632;10.016;2023-05-23T08:48:15;11.65;;;6.72;;
29712;SDS011;16623;53.632;10.016;2023-05-23T08:50:44;9.98;;;6.65;;
29712;SDS011;16623;53.632;10.016;2023-05-23T08:53:11;8.40;;;6.50;;
29712;SDS011;16623;53.632;10.016;2023-05-23T08:55:44;11.70;;;6.65;;
29712;SDS011;16623;53.632;10.016;2023-05-23T08:58:12;10.50;;;7.13;;
29712;SDS011;16623;53.632;10.016;2023-05-23T09:00:38;13.85;;;8.50;;
29712;SDS011;16623;53.632;10.016;2023-05-23T09:03:04;11.05;;;7.70;;
29712;SDS011;16623;53.632;10.016;2023-05-23T09:05:30;12.27;;;9.85;;
29712;SDS011;16623;53.632;10.016;2023-05-23T09:07:56;10.30;;;8.40;;
29712;SDS011;16623;53.632;10.016;2023-05-23T09:10:21;11.95;;;8.27;;
29712;SDS011;16623;53.632;10.016;2023-05-23T09:12:47;14.00;;;9.75;;
29712;SDS011;16623;53.632;10.016;2023-05-23T09:15:13;19.13;;;10.38;;
29712;SDS011;16623;53.632;10.016;2023-05-23T09:17:40;22.13;;;12.45;;
29712;SDS011;16623;53.632;10.016;2023-05-23T09:20:10;17.52;;;11.65;;
29712;SDS011;16623;53.632;10.016;2023-05-23T09:22:38;23.27;;;12.15;;
29712;SDS011;16623;53.632;10.016;2023-05-23T09:25:04;21.17;;;11.95;;
29712;SDS011;16623;53.632;10.016;2023-05-23T09:27:30;16.63;;;11.13;;
29712;SDS011;16623;53.632;10.016;2023-05-23T09:29:56;13.80;;;9.68;;
29712;SDS011;16623;53.632;10.016;2023-05-23T09:32:22;18.50;;;10.23;;
29712;SDS011;16623;53.632;10.016;2023-05-23T09:34:57;22.13;;;11.18;;
29712;SDS011;16623;53.632;10.016;2023-05-23T09:37:37;16.20;;;7.72;;
29712;SDS011;16623;53.632;10.016;2023-05-23T09:40:11;12.00;;;8.02;;
29712;SDS011;16623;53.632;10.016;2023-05-23T09:42:41;15.88;;;7.93;;
29712;SDS011;16623;53.632;10.016;2023-05-23T09:45:11;14.77;;;8.65;;
29712;SDS011;16623;53.632;10.016;2023-05-23T09:47:38;14.60;;;8.50;;
29712;SDS011;16623;53.632;10.016;2023-05-23T09:50:04;10.40;;;6.20;;
29712;SDS011;16623;53.632;10.016;2023-05-23T09:52:36;10.95;;;6.28;;
29712;SDS011;16623;53.632;10.016;2023-05-23T09:57:35;11.93;;;5.55;;
29712;SDS011;16623;53.632;10.016;2023-05-23T10:00:04;11.70;;;6.50;;
29712;SDS011;16623;53.632;10.016;2023-05-23T10:05:36;9.75;;;4.72;;
29712;SDS011;16623;53.632;10.016;2023-05-23T10:08:07;13.50;;;4.60;;
29712;SDS011;16623;53.632;10.016;2023-05-23T10:10:34;10.80;;;5.03;;
29712;SDS011;16623;53.632;10.016;2023-05-23T10:13:24;10.93;;;4.50;;
29712;SDS011;16623;53.632;10.016;2023-05-23T10:15:58;15.77;;;5.15;;
29712;SDS011;16623;53.632;10.016;2023-05-23T10:18:33;9.73;;;4.65;;
29712;SDS011;16623;53.632;10.016;2023-05-23T10:21:10;12.52;;;5.22;;
29712;SDS011;16623;53.632;10.016;2023-05-23T10:23:48;9.32;;;3.70;;
29712;SDS011;16623;53.632;10.016;2023-05-23T10:26:15;12.63;;;6.13;;
29712;SDS011;16623;53.632;10.016;2023-05-23T10:28:41;9.95;;;4.03;;
29712;SDS011;16623;53.632;10.016;2023-05-23T10:31:10;6.95;;;3.38;;
29712;SDS011;16623;53.632;10.016;2023-05-23T10:33:37;7.90;;;3.70;;
29712;SDS011;16623;53.632;10.016;2023-05-23T10:36:27;7.80;;;3.63;;
29712;SDS011;16623;53.632;10.016;2023-05-23T10:39:21;12.45;;;4.43;;
29712;SDS011;16623;53.632;10.016;2023-05-23T10:41:59;12.65;;;3.60;;
29712;SDS011;16623;53.632;10.016;2023-05-23T10:44:29;9.80;;;3.60;;
29712;SDS011;16623;53.632;10.016;2023-05-23T10:46:59;9.32;;;3.05;;
29712;SDS011;16623;53.632;10.016;2023-05-23T10:49:50;12.43;;;3.33;;
29712;SDS011;16623;53.632;10.016;2023-05-23T10:52:16;6.90;;;3.00;;
29712;SDS011;16623;53.632;10.016;2023-05-23T10:54:43;16.10;;;3.63;;
29712;SDS011;16623;53.632;10.016;2023-05-23T10:57:10;7.90;;;2.78;;
29712;SDS011;16623;53.632;10.016;2023-05-23T10:59:58;13.48;;;4.05;;
29712;SDS011;16623;53.632;10.016;2023-05-23T11:02:24;8.05;;;3.38;;
29712;SDS011;16623;53.632;10.016;2023-05-23T11:05:37;11.82;;;3.60;;
29712;SDS011;16623;53.632;10.016;2023-05-23T11:08:06;19.15;;;4.07;;
29712;SDS011;16623;53.632;10.016;2023-05-23T11:13:23;15.02;;;3.75;;
29712;SDS011;16623;53.632;10.016;2023-05-23T11:15:49;15.60;;;4.63;;
29712;SDS011;16623;53.632;10.016;2023-05-23T11:18:25;12.93;;;3.22;;
29712;SDS011;16623;53.632;10.016;2023-05-23T11:20:52;13.88;;;3.92;;
29712;SDS011;16623;53.632;10.016;2023-05-23T11:23:19;15.85;;;3.80;;
29712;SDS011;16623;53.632;10.016;2023-05-23T11:25:52;11.80;;;3.97;;
29712;SDS011;16623;53.632;10.016;2023-05-23T11:28:19;17.17;;;4.93;;
29712;SDS011;16623;53.632;10.016;2023-05-23T11:30:48;14.25;;;3.80;;
29712;SDS011;16623;53.632;10.016;2023-05-23T11:33:14;11.63;;;3.53;;
29712;SDS011;16623;53.632;10.016;2023-05-23T11:35:44;24.02;;;4.18;;
29712;SDS011;16623;53.632;10.016;2023-05-23T11:38:12;16.83;;;3.80;;
29712;SDS011;16623;53.632;10.016;2023-05-23T11:40:41;12.43;;;3.42;;
29712;SDS011;16623;53.632;10.016;2023-05-23T11:43:08;17.23;;;3.58;;
29712;SDS011;16623;53.632;10.016;2023-05-23T11:45:38;15.45;;;3.75;;
29712;SDS011;16623;53.632;10.016;2023-05-23T11:48:05;9.00;;;3.38;;
29712;SDS011;16623;53.632;10.016;2023-05-23T11:50:32;14.55;;;3.95;;
29712;SDS011;16623;53.632;10.016;2023-05-23T11:52:58;13.95;;;4.10;;
29712;SDS011;16623;53.632;10.016;2023-05-23T11:55:24;12.48;;;4.45;;
29712;SDS011;16623;53.632;10.016;2023-05-23T11:57:49;17.20;;;4.50;;
29712;SDS011;16623;53.632;10.016;2023-05-23T12:00:28;15.25;;;4.53;;
29712;SDS011;16623;53.632;10.016;2023-05-23T12:02:54;12.23;;;3.88;;
29712;SDS011;16623;53.632;10.016;2023-05-23T12:05:19;19.02;;;4.20;;
29712;SDS011;16623;53.632;10.016;2023-05-23T12:07:46;12.85;;;4.38;;
29712;SDS011;16623;53.632;10.016;2023-05-23T12:10:16;17.40;;;4.45;;
29712;SDS011;16623;53.632;10.016;2023-05-23T12:12:42;10.68;;;3.67;;
29712;SDS011;16623;53.632;10.016;2023-05-23T12:15:09;13.23;;;3.78;;
29712;SDS011;16623;53.632;10.016;2023-05-23T12:17:36;11.15;;;3.78;;
29712;SDS011;16623;53.632;10.016;2023-05-23T12:20:11;15.27;;;3.22;;
29712;SDS011;16623;53.632;10.016;2023-05-23T12:22:36;16.42;;;3.70;;
29712;SDS011;16623;53.632;10.016;2023-05-23T12:25:02;14.45;;;3.95;;
29712;SDS011;16623;53.632;10.016;2023-05-23T12:27:33;8.98;;;3.05;;
29712;SDS011;16623;53.632;10.016;2023-05-23T12:30:10;12.60;;;3.35;;
29712;SDS011;16623;53.632;10.016;2023-05-23T12:32:38;12.82;;;3.28;;
29712;SDS011;16623;53.632;10.016;2023-05-23T12:35:06;21.40;;;4.22;;
29712;SDS011;16623;53.632;10.016;2023-05-23T12:37:32;10.23;;;3.25;;
29712;SDS011;16623;53.632;10.016;2023-05-23T12:40:08;9.98;;;3.15;;
29712;SDS011;16623;53.632;10.016;2023-05-23T12:45:22;14.65;;;3.53;;
29712;SDS011;16623;53.632;10.016;2023-05-23T12:47:49;21.88;;;5.00;;
29712;SDS011;16623;53.632;10.016;2023-05-23T12:50:15;15.75;;;4.57;;
29712;SDS011;16623;53.632;10.016;2023-05-23T12:52:40;20.48;;;4.47;;
29712;SDS011;16623;53.632;10.016;2023-05-23T12:55:07;15.43;;;3.95;;
29712;SDS011;16623;53.632;10.016;2023-05-23T12:57:33;13.68;;;4.40;;
29712;SDS011;16623;53.632;10.016;2023-05-23T12:59:59;14.60;;;3.78;;
29712;SDS011;16623;53.632;10.016;2023-05-23T13:02:27;18.88;;;3.97;;
29712;SDS011;16623;53.632;10.016;2023-05-23T13:04:53;25.38;;;4.72;;
29712;SDS011;16623;53.632;10.016;2023-05-23T13:07:19;19.27;;;4.30;;
29712;SDS011;16623;53.632;10.016;2023-05-23T13:09:44;13.50;;;3.97;;
29712;SDS011;16623;53.632;10.016;2023-05-23T13:12:10;17.33;;;4.40;;
29712;SDS011;16623;53.632;10.016;2023-05-23T13:14:36;12.27;;;3.05;;
29712;SDS011;16623;53.632;10.016;2023-05-23T13:17:02;19.17;;;3.72;;
29712;SDS011;16623;53.632;10.016;2023-05-23T13:19:27;12.75;;;3.88;;
29712;SDS011;16623;53.632;10.016;2023-05-23T13:21:53;17.13;;;4.85;;
29712;SDS011;16623;53.632;10.016;2023-05-23T13:24:19;16.73;;;3.60;;
29712;SDS011;16623;53.632;10.016;2023-05-23T13:26:44;11.07;;;3.42;;
29712;SDS011;16623;53.632;10.016;2023-05-23T13:29:10;14.30;;;3.70;;
29712;SDS011;16623;53.632;10.016;2023-05-23T13:31:36;13.38;;;4.10;;
29712;SDS011;16623;53.632;10.016;2023-05-23T13:34:01;19.25;;;3.75;;
29712;SDS011;16623;53.632;10.016;2023-05-23T13:36:27;14.70;;;4.03;;
29712;SDS011;16623;53.632;10.016;2023-05-23T13:38:53;16.30;;;3.72;;
29712;SDS011;16623;53.632;10.016;2023-05-23T13:41:18;19.70;;;4.07;;
29712;SDS011;16623;53.632;10.016;2023-05-23T13:43:44;17.92;;;4.65;;
29712;SDS011;16623;53.632;10.016;2023-05-23T13:46:10;19.15;;;5.05;;
29712;SDS011;16623;53.632;10.016;2023-05-23T13:48:37;17.63;;;3.90;;
29712;SDS011;16623;53.632;10.016;2023-05-23T13:51:03;14.60;;;3.88;;
29712;SDS011;16623;53.632;10.016;2023-05-23T13:53:30;14.05;;;3.30;;
29712;SDS011;16623;53.632;10.016;2023-05-23T13:55:56;15.55;;;3.42;;
29712;SDS011;16623;53.632;10.016;2023-05-23T13:58:21;18.17;;;4.50;;
29712;SDS011;16623;53.632;10.016;2023-05-23T14:00:47;15.60;;;4.05;;
29712;SDS011;16623;53.632;10.016;2023-05-23T14:03:13;12.95;;;4.28;;
29712;SDS011;16623;53.632;10.016;2023-05-23T14:05:40;21.80;;;4.40;;
29712;SDS011;16623;53.632;10.016;2023-05-23T14:08:06;15.82;;;4.05;;
29712;SDS011;16623;53.632;10.016;2023-05-23T14:10:31;13.18;;;3.75;;
29712;SDS011;16623;53.632;10.016;2023-05-23T14:12:57;16.88;;;4.22;;
29712;SDS011;16623;53.632;10.016;2023-05-23T14:15:23;13.73;;;3.30;;
29712;SDS011;16623;53.632;10.016;2023-05-23T14:17:49;12.10;;;3.38;;
29712;SDS011;16623;53.632;10.016;2023-05-23T14:20:19;19.98;;;3.70;;
29712;SDS011;16623;53.632;10.016;2023-05-23T14:22:45;14.60;;;3.67;;
29712;SDS011;16623;53.632;10.016;2023-05-23T14:25:11;11.57;;;2.97;;
29712;SDS011;16623;53.632;10.016;2023-05-23T14:27:37;12.63;;;3.40;;
29712;SDS011;16623;53.632;10.016;2023-05-23T14:30:04;16.77;;;3.30;;
29712;SDS011;16623;53.632;10.016;2023-05-23T14:32:31;15.75;;;3.53;;
29712;SDS011;16623;53.632;10.016;2023-05-23T14:35:02;16.50;;;3.80;;